Flight Track Log - Related Links

Times and Time Zones

All times are in EDT time to prevent confusion due to time zone crossing. See the CHH7007 flight status page for this flight to view local times or setup timezone preferences in your user account.

Time Position Orientation Groundspeed Altitude Reporting Facility
EDT Latitude Longitude Course Direction KTS MPH feet Rate Location/Type
Wed 01:31:34 AM 22.4820 111.5420 55° Northeast 355 409 23,100  Level FlightAware ADS-B
Wed 01:32:19 AM 22.5200 111.6030 56° Northeast 354 407 22,800 -1,000 Descending FlightAware ADS-B
Wed 01:33:34 AM 22.5930 111.7200 56° Northeast 351 404 21,100 -1,243 Descending FlightAware ADS-B
Wed 01:34:10 AM 22.6250 111.7710 56° Northeast 350 403 20,500 -592 Descending FlightAware ADS-B
Wed 01:34:45 AM 22.6540 111.8160 55° Northeast 348 400 20,400 -74 Descending FlightAware ADS-B
Wed 01:35:31 AM 22.6910 111.8720 54° Northeast 348 400 20,400  Level FlightAware ADS-B
Wed 01:36:07 AM 22.7190 111.9160 55° Northeast 348 400 20,400  Level FlightAware ADS-B
Wed 01:36:57 AM 22.7580 111.9770 55° Northeast 348 400 20,400  Level FlightAware ADS-B
Wed 01:37:31 AM 22.7850 112.0180 54° Northeast 348 400 20,400 -2,411 Level FlightAware ADS-B
Wed 01:38:49 AM 22.8750 112.1720 58° Northeast 341 392 15,900 -2,684 Descending FlightAware ADS-B
Wed 01:39:25 AM 22.9070 112.2230 56° Northeast 339 390 15,300 -1,026 Descending FlightAware ADS-B
Wed 01:40:05 AM 22.9420 112.2790 56° Northeast 337 388 14,600 -1,000 Descending FlightAware ADS-B
Wed 01:40:49 AM 22.9790 112.3400 57° Northeast 334 384 13,900 -1,024 Descending FlightAware ADS-B
Wed 01:41:27 AM 23.0130 112.3950 56° Northeast 333 383 13,200 -892 Descending FlightAware ADS-B
Wed 01:42:03 AM 23.0420 112.4440 57° Northeast 330 380 12,800 -632 Descending FlightAware ADS-B
Wed 01:42:43 AM 23.0670 112.5060 66° East 325 374 12,400 -779 Descending FlightAware ADS-B
Wed 01:43:20 AM 23.0910 112.5590 64° Northeast 328 377 11,800 -1,000 Descending FlightAware ADS-B
Wed 01:44:07 AM 23.1240 112.6270 62° Northeast 322 371 11,000 -552 Descending FlightAware ADS-B
Wed 01:44:47 AM 23.1480 112.6760 62° Northeast 322 371 11,000 -135 Level FlightAware ADS-B
Wed 01:45:36 AM 23.2160 112.7180 30° Northeast 322 371 10,800 -158 Descending FlightAware ADS-B
Wed 01:46:03 AM 23.2280 112.7700 76° East 320 368 10,800  Level FlightAware ADS-B
Wed 01:46:43 AM 23.2520 112.8300 66° East 319 367 10,800  Level FlightAware ADS-B
Wed 01:47:25 AM 23.2780 112.8930 66° East 319 367 10,800 -70 Level FlightAware ADS-B
Wed 01:48:09 AM 23.3050 112.9570 65° Northeast 318 366 10,700 -494 Descending FlightAware ADS-B
Wed 01:48:50 AM 23.3290 113.0150 66° East 316 364 10,100 -964 Descending FlightAware ADS-B
Wed 01:49:05 AM 23.3380 113.0370 66° East 314 361 9,800 -1,000 Descending FlightAware ADS-B
Wed 01:49:32 AM 23.3550 113.0750 64° Northeast 312 359 9,400 -1,000 Descending FlightAware ADS-B
Wed 01:49:59 AM 23.3760 113.1120 58° Northeast 315 362 8,900 -1,132 Descending FlightAware ADS-B
Wed 01:50:25 AM 23.4050 113.1370 38° Northeast 308 354 8,400 -1,080 Descending FlightAware ADS-B
Wed 01:50:49 AM 23.4340 113.1550 30° Northeast 301 346 8,000 -462 Descending FlightAware ADS-B
Wed 01:51:17 AM 23.4680 113.1720 25° Northeast 281 323 8,000 136 Level FlightAware ADS-B
Wed 01:51:33 AM 23.4870 113.1810 23° Northeast 269 310 8,100  Climbing FlightAware ADS-B
Wed 01:52:01 AM 23.5180 113.1950 22° Northeast 246 283 8,000 -167 Descending FlightAware ADS-B
Wed 01:52:09 AM 23.5260 113.1980 19° North 242 278 8,000 -480 Level FlightAware ADS-B
Wed 01:52:26 AM 23.5440 113.2050 20° North 239 275 7,800 -1,050 Descending FlightAware ADS-B
Wed 01:52:49 AM 23.5680 113.2140 19° North 235 270 7,300 -1,154 Descending FlightAware ADS-B
Wed 01:53:18 AM 23.5970 113.2260 21° North 233 268 6,800 -1,111 Descending FlightAware ADS-B
Wed 01:53:43 AM 23.6240 113.2330 13° North 230 265 6,300 -1,176 Descending FlightAware ADS-B
Wed 01:54:09 AM 23.6500 113.2400 14° North 226 260 5,800 -1,143 Descending FlightAware ADS-B
Wed 01:54:25 AM 23.6610 113.2530 47° Northeast 216 249 5,500 -923 Descending FlightAware ADS-B
Wed 01:54:35 AM 23.6630 113.2630 78° East 208 239 5,400 -750 Descending FlightAware ADS-B
Wed 01:54:57 AM 23.6590 113.2850 101° East 201 231 5,100 -840 Descending FlightAware ADS-B
Wed 01:55:25 AM 23.6530 113.3130 103° East 198 228 4,700 -857 Descending FlightAware ADS-B
Wed 01:55:53 AM 23.6410 113.3360 120° Southeast 191 220 4,300 -900 Descending FlightAware ADS-B
Wed 01:56:05 AM 23.6310 113.3390 165° South 192 221 4,100 -750 Descending FlightAware ADS-B
Wed 01:56:33 AM 23.6060 113.3440 170° South 188 216 3,800 -750 Descending FlightAware ADS-B
Wed 01:57:01 AM 23.5830 113.3390 191° South 184 212 3,400 -792 Descending FlightAware ADS-B
Wed 01:57:26 AM 23.5620 113.3340 192° South 180 207 3,100 -875 Descending FlightAware ADS-B
Wed 01:57:49 AM 23.5450 113.3290 195° South 169 194 2,700 -878 Descending FlightAware ADS-B
Wed 01:58:07 AM 23.5310 113.3250 195° South 159 183 2,500 -353 Descending FlightAware ADS-B
Wed 01:58:40 AM 23.5110 113.3200 193° South 153 176 2,400 -182 Descending FlightAware ADS-B
Wed 02:01:00 AM 23.3924 113.2988 189° South  Level Estimated
Wed 02:02:00 AM 23.3924 113.2988 223° Southwest  Level Estimated
Wed 02:03:00 AM 23.3924 113.2988 223° Southwest  Level Estimated
Wed 02:04:00 AM 23.3924 113.2988 223° Southwest  Level Estimated
Wed 02:05:00 AM 23.3924 113.2988 223° Southwest  Level Estimated
Wed 02:06:00 AM 23.3924 113.2988 223° Southwest  Level Estimated
Wed 02:07:00 AM 23.3924 113.2988 223° Southwest  Level Estimated
Wed 02:08:00 AM 23.3924 113.2988 223° Southwest  Level Estimated
Wed 02:09:00 AM 23.3924 113.2988 223° Southwest  Level Estimated
Wed 02:10:00 AM 23.3924 113.2988 223° Southwest  Level Estimated
Wed 02:11:00 AM 23.3924 113.2988 223° Southwest  Level Estimated

Login

Don't have an account? Register now (free) for customized features, flight alerts, and more!